CBE weather

Greater Cumberland Regional Airport
Cumberland, Maryland, United States

Public forecast

Using degrees Fahrenheit for public forecast. Weather courtesy of forecast.io.

Current aviation weather report (METAR) for Greater Cumberland Regional Airport

Report is more than 6 hours old.

Retrieved 2020/05/14 21:15 UTC (17 days ago):

KCBE 142115Z AUTO 31003KT 10SM BKN060 OVC070 21/12 A3012 RMK AO2 T02110118

Closest aviation forecast (TAF) to Greater Cumberland Regional Airport

Closest forecast is Eastern WV Regional Airport/Shepherd Field, 38.2 nm (70.7 km) ESE. Retrieved 2020/06/01 06:42 UTC (2 hours ago):

TAF KMRB 010539Z 0106/0206 31004KT P6SM FEW250 FM011500 30008KT P6SM FEW050 SCT250 FM020100 VRB03KT P6SM FEW150 FEW250